Time;durP1;ratioP1;P1;durP2;ratioP2;P2;SDS_P1;SDS_P2;PMS_P1;PMS_P2;Temp;Humidity;BMP_temperature;BMP_pressure;BME280_temperature;BME280_humidity;BME280_pressure;Samples;Min_cycle;Max_cycle;Signal;HPM_P1;HPM_P2
2022/09/14 00:01:14;;;;;;;10.30;5.97;;;17.20;99.90;;;;;;5041577;28;20085;-83
2022/09/14 00:03:40;;;;;;;11.25;5.90;;;17.20;99.90;;;;;;5059041;28;20028;-84
2022/09/14 00:06:12;;;;;;;9.68;6.05;;;17.20;99.90;;;;;;5058810;28;20092;-84
2022/09/14 00:08:39;;;;;;;11.35;5.85;;;17.20;99.90;;;;;;5040583;28;20035;-83
2022/09/14 00:11:11;;;;;;;13.85;5.95;;;17.20;99.90;;;;;;5058422;28;20021;-84
2022/09/14 00:13:38;;;;;;;11.68;6.82;;;17.20;99.90;;;;;;5075128;28;20028;-85
2022/09/14 00:16:07;;;;;;;9.00;6.32;;;17.20;99.90;;;;;;5078746;28;20033;-83
2022/09/14 00:18:34;;;;;;;9.63;6.43;;;17.20;99.90;;;;;;5066473;28;20104;-83
2022/09/14 00:21:05;;;;;;;17.15;7.03;;;17.20;99.90;;;;;;5083424;28;20076;-82
2022/09/14 00:23:34;;;;;;;15.18;6.68;;;17.20;99.90;;;;;;5085234;28;20021;-83
2022/09/14 00:26:12;;;;;;;19.15;6.97;;;17.20;99.90;;;;;;5027558;28;20021;-83
2022/09/14 00:28:47;;;;;;;16.88;6.57;;;17.20;99.90;;;;;;5040116;28;20056;-83
2022/09/14 00:31:13;;;;;;;15.02;7.00;;;17.20;99.90;;;;;;5033643;28;20055;-85
2022/09/14 00:33:43;;;;;;;12.65;7.60;;;17.20;99.90;;;;;;5061225;28;20509;-84
2022/09/14 00:36:12;;;;;;;27.25;10.35;;;17.20;99.90;;;;;;5075785;28;20036;-83
2022/09/14 00:38:38;;;;;;;15.45;7.72;;;17.20;99.90;;;;;;5059085;28;20496;-83
2022/09/14 00:41:06;;;;;;;13.27;7.80;;;17.10;99.90;;;;;;5050798;28;20029;-83
2022/09/14 00:43:32;;;;;;;17.13;7.22;;;17.10;99.90;;;;;;5061074;28;20388;-85
2022/09/14 00:46:01;;;;;;;13.55;7.40;;;17.10;99.90;;;;;;5075122;28;20025;-82
2022/09/14 00:48:28;;;;;;;13.15;7.22;;;17.00;99.90;;;;;;5077634;28;20094;-83
2022/09/14 00:50:55;;;;;;;10.65;6.35;;;17.00;99.90;;;;;;5078630;28;20021;-84
2022/09/14 00:53:21;;;;;;;14.57;7.05;;;16.90;99.90;;;;;;5078546;28;20111;-82
2022/09/14 00:55:47;;;;;;;12.23;6.68;;;16.90;99.90;;;;;;5059658;28;20052;-83
2022/09/14 00:58:13;;;;;;;13.90;6.78;;;16.90;99.90;;;;;;5078766;28;20482;-82
2022/09/14 01:00:39;;;;;;;9.57;6.40;;;16.80;99.90;;;;;;5075919;28;20055;-83
2022/09/14 01:03:05;;;;;;;14.77;6.65;;;16.80;99.90;;;;;;5060671;28;20099;-84
2022/09/14 01:05:47;;;;;;;9.05;6.45;;;16.80;99.90;;;;;;5063232;28;20051;-83
2022/09/14 01:08:35;;;;;;;12.07;6.97;;;16.70;99.90;;;;;;5039566;28;20502;-82
2022/09/14 01:11:25;;;;;;;10.35;6.72;;;16.70;99.90;;;;;;5001288;28;20067;-83
2022/09/14 01:14:06;;;;;;;19.13;7.25;;;16.70;99.90;;;;;;5059859;28;20036;-83
2022/09/14 01:16:36;;;;;;;11.68;5.68;;;16.70;99.90;;;;;;5077847;28;20054;-84
2022/09/14 01:19:32;;;;;;;12.68;5.57;;;16.70;99.90;;;;;;5077140;28;20024;-83
2022/09/14 01:22:05;;;;;;;12.27;6.63;;;16.60;99.90;;;;;;5060254;28;20512;-84
2022/09/14 01:25:14;;;;;;;10.60;6.80;;;16.60;99.90;;;;;;5057142;28;20091;-83
2022/09/14 01:27:42;;;;;;;10.50;6.07;;;16.50;99.90;;;;;;5051762;28;20065;-84
2022/09/14 01:30:11;;;;;;;10.60;5.93;;;16.60;99.90;;;;;;5069141;28;20035;-85
2022/09/14 01:33:00;;;;;;;12.95;6.75;;;16.60;99.90;;;;;;5060705;28;20035;-82
2022/09/14 01:35:55;;;;;;;8.05;5.70;;;16.60;99.90;;;;;;5061555;28;20040;-83
2022/09/14 01:38:37;;;;;;;9.90;5.40;;;16.70;99.90;;;;;;5026744;28;20133;-82
2022/09/14 01:41:07;;;;;;;10.05;5.50;;;16.70;99.90;;;;;;5060894;28;20029;-83
2022/09/14 01:43:45;;;;;;;7.97;5.40;;;16.70;99.90;;;;;;5045145;28;20487;-83
2022/09/14 01:46:21;;;;;;;9.80;5.60;;;16.70;99.90;;;;;;5023057;28;20055;-83
2022/09/14 01:49:04;;;;;;;8.80;5.32;;;16.80;99.90;;;;;;5058228;28;20043;-85
2022/09/14 01:51:42;;;;;;;7.65;4.93;;;16.80;99.90;;;;;;5029731;28;20037;-85
2022/09/14 01:54:29;;;;;;;9.63;5.82;;;16.90;99.90;;;;;;5040273;28;20036;-83
2022/09/14 01:57:01;;;;;;;9.77;6.15;;;17.00;99.90;;;;;;5065992;28;20396;-82
2022/09/14 01:59:33;;;;;;;8.00;5.22;;;17.00;99.90;;;;;;5062197;28;20484;-83
2022/09/14 02:02:28;;;;;;;8.18;5.32;;;17.00;99.90;;;;;;5069252;28;20104;-82
2022/09/14 02:05:09;;;;;;;7.77;5.30;;;17.00;99.90;;;;;;5037868;28;20044;-83
2022/09/14 02:07:36;;;;;;;11.02;5.93;;;17.00;99.90;;;;;;5074239;28;20039;-83
2022/09/14 02:10:07;;;;;;;13.57;5.88;;;17.10;99.90;;;;;;5064493;28;20084;-83
2022/09/14 02:12:34;;;;;;;11.15;5.88;;;17.10;99.90;;;;;;5040112;28;20029;-84
2022/09/14 02:14:59;;;;;;;8.95;5.80;;;17.10;99.90;;;;;;5037696;28;20029;-84
2022/09/14 02:17:27;;;;;;;8.57;6.00;;;17.10;99.90;;;;;;5019542;28;20041;-83
2022/09/14 02:19:59;;;;;;;10.63;5.50;;;17.10;99.90;;;;;;5060611;28;20036;-85
2022/09/14 02:22:26;;;;;;;9.52;5.45;;;17.10;99.90;;;;;;5056188;28;20025;-85
2022/09/14 02:24:53;;;;;;;11.05;5.93;;;17.10;99.90;;;;;;5055393;28;20025;-83
2022/09/14 02:27:19;;;;;;;11.25;6.00;;;17.10;99.90;;;;;;5060834;28;20033;-82
2022/09/14 02:29:45;;;;;;;8.32;5.70;;;17.10;99.90;;;;;;5044181;28;20017;-83
2022/09/14 02:32:29;;;;;;;10.32;5.50;;;17.10;99.90;;;;;;5057917;28;20053;-85
2022/09/14 02:35:21;;;;;;;10.50;5.95;;;17.10;99.90;;;;;;5078117;28;20028;-83
2022/09/14 02:37:53;;;;;;;7.68;4.88;;;17.20;99.90;;;;;;5084577;28;20044;-82
2022/09/14 02:40:28;;;;;;;8.48;4.70;;;17.20;99.90;;;;;;5075050;28;20069;-84
2022/09/14 02:43:18;;;;;;;5.75;4.60;;;17.20;99.90;;;;;;5043972;28;20029;-83
2022/09/14 02:45:53;;;;;;;9.13;4.45;;;17.10;99.90;;;;;;5057621;28;20099;-84
2022/09/14 02:48:22;;;;;;;6.32;4.43;;;17.10;99.90;;;;;;5042671;28;20048;-83
2022/09/14 02:51:12;;;;;;;9.32;5.78;;;17.10;99.90;;;;;;5059443;28;20084;-83
2022/09/14 02:53:48;;;;;;;7.22;5.00;;;17.00;99.90;;;;;;5085364;28;20040;-82
2022/09/14 02:56:16;;;;;;;9.80;5.20;;;17.00;99.90;;;;;;5076904;28;20029;-83
2022/09/14 02:58:44;;;;;;;9.10;4.85;;;16.90;99.90;;;;;;5067871;28;20024;-82
2022/09/14 03:01:16;;;;;;;8.43;5.28;;;16.90;99.90;;;;;;5050122;28;20097;-84
2022/09/14 03:03:42;;;;;;;7.50;4.85;;;16.90;99.90;;;;;;5082152;28;20031;-83
2022/09/14 03:06:08;;;;;;;13.73;5.55;;;16.90;99.90;;;;;;5069700;28;20048;-82
2022/09/14 03:08:34;;;;;;;8.73;5.63;;;16.80;99.90;;;;;;5066870;28;20088;-84
2022/09/14 03:11:00;;;;;;;7.25;5.10;;;16.90;99.90;;;;;;5062108;28;20020;-82
2022/09/14 03:13:26;;;;;;;7.75;5.25;;;16.90;99.90;;;;;;5082553;28;20020;-83
2022/09/14 03:15:52;;;;;;;8.38;5.07;;;16.90;99.90;;;;;;5084437;28;20027;-82
2022/09/14 03:18:18;;;;;;;10.98;5.90;;;16.90;99.90;;;;;;5063541;28;20017;-84
2022/09/14 03:20:44;;;;;;;9.43;5.05;;;16.90;99.90;;;;;;5092176;28;20056;-84
2022/09/14 03:23:11;;;;;;;7.30;5.05;;;16.90;99.90;;;;;;5094356;28;20027;-84
2022/09/14 03:25:40;;;;;;;8.32;5.32;;;16.90;99.90;;;;;;5067180;28;20058;-84
2022/09/14 03:28:07;;;;;;;11.15;5.05;;;16.90;99.90;;;;;;5083845;28;20017;-84
2022/09/14 03:30:33;;;;;;;10.43;5.57;;;16.90;99.90;;;;;;5101163;28;20016;-83
2022/09/14 03:32:59;;;;;;;8.15;5.70;;;16.90;99.90;;;;;;5100484;28;20035;-84
2022/09/14 03:35:29;;;;;;;10.77;6.35;;;16.90;99.90;;;;;;5100622;28;20050;-83
2022/09/14 03:37:55;;;;;;;10.05;5.50;;;16.80;99.90;;;;;;5100710;28;20103;-83
2022/09/14 03:40:21;;;;;;;11.40;5.40;;;16.80;99.90;;;;;;5066284;28;20021;-83
2022/09/14 03:42:49;;;;;;;9.50;5.35;;;16.80;99.90;;;;;;5099757;28;20044;-83
2022/09/14 03:45:16;;;;;;;8.45;5.43;;;16.80;99.90;;;;;;5092942;28;20021;-82
2022/09/14 03:47:42;;;;;;;11.20;6.28;;;16.80;99.90;;;;;;5069180;28;20100;-82
2022/09/14 03:50:10;;;;;;;10.88;6.45;;;16.80;99.90;;;;;;5061585;28;20086;-83
2022/09/14 03:52:36;;;;;;;9.25;6.15;;;16.90;99.90;;;;;;5061653;28;20037;-80
2022/09/14 03:55:05;;;;;;;13.68;6.15;;;16.90;99.90;;;;;;5061251;28;20164;-82
2022/09/14 03:57:31;;;;;;;7.10;5.60;;;16.90;99.90;;;;;;5055157;28;20028;-82
2022/09/14 03:59:57;;;;;;;7.57;5.18;;;16.90;99.90;;;;;;5045503;28;20033;-83
2022/09/14 04:02:23;;;;;;;12.82;4.70;;;16.90;99.90;;;;;;5060816;28;20021;-82
2022/09/14 04:04:49;;;;;;;9.45;5.22;;;16.80;99.90;;;;;;5061708;28;20542;-82
2022/09/14 04:07:16;;;;;;;7.47;4.60;;;16.80;99.90;;;;;;5060022;28;20024;-82
2022/09/14 04:09:42;;;;;;;9.10;4.93;;;16.80;99.90;;;;;;5075793;28;20024;-82
2022/09/14 04:12:08;;;;;;;8.43;4.60;;;16.80;99.90;;;;;;5061727;28;20092;-82
2022/09/14 04:14:34;;;;;;;8.52;4.30;;;16.90;99.90;;;;;;5080294;28;20447;-82
2022/09/14 04:17:00;;;;;;;10.75;5.35;;;16.90;99.90;;;;;;5064790;28;20031;-79
2022/09/14 04:19:26;;;;;;;9.45;5.10;;;16.90;99.90;;;;;;5081138;28;20021;-83
2022/09/14 04:21:51;;;;;;;8.10;4.47;;;16.80;99.90;;;;;;5073827;28;20120;-81
2022/09/14 04:24:17;;;;;;;12.50;5.22;;;16.80;99.90;;;;;;5098385;28;20497;-81
2022/09/14 04:26:44;;;;;;;10.52;5.05;;;16.80;99.90;;;;;;5100002;28;20047;-82
2022/09/14 04:29:11;;;;;;;11.15;5.10;;;16.80;99.90;;;;;;5099291;28;20016;-83
2022/09/14 04:31:38;;;;;;;11.48;4.72;;;16.90;99.90;;;;;;5082443;28;20020;-84
2022/09/14 04:34:04;;;;;;;10.45;4.80;;;16.90;99.90;;;;;;5068303;28;20024;-86
2022/09/14 04:36:30;;;;;;;8.82;4.63;;;16.90;99.90;;;;;;5061802;28;20028;-83
2022/09/14 04:38:58;;;;;;;10.30;4.95;;;16.90;99.90;;;;;;5060099;28;20025;-81
2022/09/14 04:41:25;;;;;;;8.18;4.80;;;16.90;99.90;;;;;;5059514;28;20037;-82
2022/09/14 04:43:52;;;;;;;9.15;4.30;;;16.90;99.90;;;;;;5043169;28;20021;-83
2022/09/14 04:46:24;;;;;;;14.88;6.30;;;16.90;99.90;;;;;;5064075;28;20051;-83
2022/09/14 04:48:50;;;;;;;8.57;4.47;;;16.90;99.90;;;;;;5044410;28;20090;-89
2022/09/14 04:51:27;;;;;;;12.20;4.80;;;16.90;99.90;;;;;;5049104;28;20031;-83
2022/09/14 04:53:58;;;;;;;9.35;5.35;;;16.90;99.90;;;;;;5070565;28;20085;-83
2022/09/14 04:56:24;;;;;;;12.52;6.10;;;16.90;99.90;;;;;;5050581;28;20097;-83
2022/09/14 04:58:53;;;;;;;12.80;6.03;;;16.90;99.90;;;;;;5067115;28;20500;-83
2022/09/14 05:01:24;;;;;;;10.05;6.03;;;16.90;99.90;;;;;;5044036;28;20064;-84
2022/09/14 05:03:51;;;;;;;9.60;5.82;;;16.90;99.90;;;;;;5062489;28;20025;-84
2022/09/14 05:06:20;;;;;;;10.30;5.30;;;16.90;99.90;;;;;;5063034;28;20025;-83
2022/09/14 05:08:47;;;;;;;17.55;7.53;;;17.00;99.90;;;;;;5066176;28;20040;-83
2022/09/14 05:11:16;;;;;;;18.92;6.72;;;17.00;99.90;;;;;;5066793;28;20116;-84
2022/09/14 05:13:41;;;;;;;12.80;6.53;;;17.00;99.90;;;;;;5049484;28;20056;-86
2022/09/14 05:16:12;;;;;;;16.88;6.78;;;17.10;99.90;;;;;;5051339;28;20025;-81
2022/09/14 05:18:38;;;;;;;12.43;5.60;;;17.10;99.90;;;;;;5068455;28;20032;-82
2022/09/14 05:21:06;;;;;;;6.35;4.78;;;17.20;99.90;;;;;;5069639;28;20025;-84
2022/09/14 05:23:33;;;;;;;8.45;5.13;;;17.20;99.90;;;;;;5071321;28;20082;-83
2022/09/14 05:25:59;;;;;;;10.68;4.90;;;17.20;99.90;;;;;;5116683;23;20041;-86
2022/09/14 05:28:28;;;;;;;15.07;4.93;;;17.30;99.90;;;;;;5057522;28;20025;-87
2022/09/14 05:30:54;;;;;;;14.38;5.55;;;17.20;99.90;;;;;;5041677;28;20044;-87
2022/09/14 05:33:21;;;;;;;9.85;5.05;;;17.30;99.90;;;;;;5056665;28;20029;-87
2022/09/14 05:35:48;;;;;;;7.93;4.85;;;17.30;99.90;;;;;;5036657;28;20026;-88
2022/09/14 05:38:14;;;;;;;14.63;6.47;;;17.30;99.90;;;;;;5038085;28;20020;-89
2022/09/14 05:40:40;;;;;;;10.27;6.60;;;17.30;99.90;;;;;;5020454;28;20026;-87
2022/09/14 05:43:06;;;;;;;14.77;6.82;;;17.30;99.90;;;;;;5035292;28;20029;-87
2022/09/14 05:45:33;;;;;;;10.35;5.97;;;17.30;99.90;;;;;;5051897;28;20081;-87
2022/09/14 05:48:05;;;;;;;11.35;6.50;;;17.40;99.90;;;;;;5034552;28;20029;-87
2022/09/14 05:50:33;;;;;;;12.65;5.82;;;17.30;99.90;;;;;;5034859;28;20070;-88
2022/09/14 05:52:59;;;;;;;9.05;6.53;;;17.40;99.90;;;;;;5050640;28;20559;-87
2022/09/14 05:55:25;;;;;;;12.65;6.75;;;17.40;99.90;;;;;;5015621;28;20101;-88
2022/09/14 05:57:51;;;;;;;11.35;6.82;;;17.40;99.90;;;;;;5031858;28;20014;-88
2022/09/14 06:00:18;;;;;;;12.00;7.05;;;17.40;99.90;;;;;;5049499;28;20029;-88
2022/09/14 06:02:49;;;;;;;14.77;7.32;;;17.50;99.90;;;;;;5051069;28;20101;-88
2022/09/14 06:05:16;;;;;;;11.73;6.28;;;17.50;99.90;;;;;;5034750;28;20014;-88
2022/09/14 06:07:42;;;;;;;12.18;7.07;;;17.60;99.90;;;;;;5004234;28;20020;-86
2022/09/14 06:10:10;;;;;;;18.52;7.32;;;17.60;99.90;;;;;;5036716;28;20083;-88
2022/09/14 06:12:38;;;;;;;14.50;7.40;;;17.70;99.90;;;;;;5038092;28;20025;-88
2022/09/14 06:15:04;;;;;;;12.32;7.57;;;17.80;99.90;;;;;;5053103;28;20033;-89
2022/09/14 06:17:30;;;;;;;17.60;7.97;;;17.90;99.90;;;;;;5018986;28;20145;-88
2022/09/14 06:19:56;;;;;;;37.42;12.52;;;18.00;99.90;;;;;;5035273;28;20041;-85
2022/09/14 06:22:22;;;;;;;31.35;10.82;;;18.00;99.90;;;;;;5054343;28;20032;-84
2022/09/14 06:24:48;;;;;;;27.65;10.18;;;18.10;99.90;;;;;;5043958;28;20029;-86
2022/09/14 06:27:14;;;;;;;28.95;9.32;;;18.10;99.90;;;;;;5052379;28;20021;-88
2022/09/14 06:29:40;;;;;;;29.67;11.05;;;18.20;99.90;;;;;;5052717;28;20039;-86
2022/09/14 06:32:06;;;;;;;20.63;9.60;;;18.30;99.90;;;;;;5036744;28;20036;-86
2022/09/14 06:34:32;;;;;;;30.40;12.10;;;18.30;99.90;;;;;;5057135;28;20048;-84
2022/09/14 06:36:58;;;;;;;19.48;8.82;;;18.40;99.90;;;;;;5056535;28;20085;-85
2022/09/14 06:39:24;;;;;;;15.68;8.38;;;18.40;99.90;;;;;;5055423;28;20029;-85
2022/09/14 06:41:50;;;;;;;17.23;9.50;;;18.40;99.90;;;;;;5038529;28;20084;-84
2022/09/14 06:44:19;;;;;;;12.95;7.50;;;18.40;99.90;;;;;;5038943;28;20010;-84
2022/09/14 06:46:45;;;;;;;15.50;6.53;;;18.40;99.90;;;;;;5057032;28;20043;-81
2022/09/14 06:49:16;;;;;;;11.98;6.75;;;18.40;99.90;;;;;;5059819;28;20056;-85
2022/09/14 06:51:46;;;;;;;13.90;7.50;;;18.40;99.90;;;;;;5043383;28;20024;-86
2022/09/14 06:54:14;;;;;;;19.27;7.38;;;18.40;99.90;;;;;;5043196;28;20086;-86
2022/09/14 06:56:41;;;;;;;15.85;7.05;;;18.40;99.90;;;;;;5059849;28;20026;-86
2022/09/14 06:59:09;;;;;;;10.85;6.35;;;18.40;99.90;;;;;;5043331;28;20079;-84
2022/09/14 07:01:35;;;;;;;13.20;7.28;;;18.50;99.90;;;;;;5061117;28;20081;-85
2022/09/14 07:04:01;;;;;;;15.68;7.60;;;18.40;99.90;;;;;;5041986;28;20017;-82
2022/09/14 07:06:32;;;;;;;17.67;8.38;;;18.40;99.90;;;;;;5024767;28;20035;-85
2022/09/14 07:09:02;;;;;;;18.13;8.55;;;18.40;99.90;;;;;;5041730;28;20079;-85
2022/09/14 07:11:28;;;;;;;19.02;8.73;;;18.50;99.90;;;;;;5054230;28;20028;-85
2022/09/14 07:14:01;;;;;;;15.38;8.57;;;18.50;99.90;;;;;;5081642;28;20017;-84
2022/09/14 07:16:28;;;;;;;15.30;7.88;;;18.50;99.90;;;;;;5081300;28;20047;-83
2022/09/14 07:18:56;;;;;;;16.27;8.10;;;18.60;99.90;;;;;;5080890;28;20020;-83
2022/09/14 07:21:23;;;;;;;17.30;8.70;;;18.60;99.90;;;;;;5080512;28;20044;-82
2022/09/14 07:23:49;;;;;;;12.85;8.18;;;18.70;99.90;;;;;;5064120;28;20021;-83
2022/09/14 07:26:24;;;;;;;13.40;8.35;;;18.80;99.90;;;;;;5080781;28;20048;-82
2022/09/14 07:28:52;;;;;;;;;;;18.90;99.90;;;;;;5063588;28;20203;-81
2022/09/14 07:31:23;;;;;;;18.70;8.90;;;19.00;99.90;;;;;;5062595;28;19913;-82
2022/09/14 07:33:54;;;;;;;12.98;7.55;;;19.20;99.90;;;;;;5078206;28;20048;-85
2022/09/14 07:36:21;;;;;;;21.65;9.38;;;19.40;99.90;;;;;;5074146;28;20033;-85
2022/09/14 07:38:47;;;;;;;16.42;9.07;;;19.60;99.90;;;;;;5053303;28;20025;-86
2022/09/14 07:41:12;;;;;;;15.18;8.38;;;19.80;99.90;;;;;;5055265;28;20032;-84
2022/09/14 07:43:39;;;;;;;16.40;8.25;;;20.00;99.90;;;;;;5054127;28;20048;-86
2022/09/14 07:46:05;;;;;;;10.50;7.88;;;20.20;99.90;;;;;;5070247;28;20017;-83
2022/09/14 07:48:33;;;;;;;18.63;8.93;;;20.30;99.90;;;;;;5068753;28;20043;-86
2022/09/14 07:51:07;;;;;;;15.50;8.27;;;20.60;99.90;;;;;;5070083;28;20019;-87
2022/09/14 07:53:42;;;;;;;24.57;9.33;;;20.70;99.90;;;;;;5075647;28;20033;-83
2022/09/14 07:56:10;;;;;;;17.25;8.38;;;20.80;99.90;;;;;;5062858;28;20017;-82
2022/09/14 07:58:36;;;;;;;17.70;9.02;;;21.00;99.90;;;;;;5042810;28;20071;-85
2022/09/14 08:01:07;;;;;;;16.83;9.73;;;21.10;99.90;;;;;;5076266;28;20020;-85
2022/09/14 08:03:35;;;;;;;18.27;8.10;;;21.30;99.90;;;;;;5076030;28;20041;-86
2022/09/14 08:06:06;;;;;;;18.23;7.68;;;21.50;99.90;;;;;;5075819;28;20063;-85
2022/09/14 08:08:35;;;;;;;13.38;7.72;;;21.40;99.90;;;;;;5076505;28;20025;-84
2022/09/14 08:11:05;;;;;;;15.88;7.95;;;21.50;99.90;;;;;;5076980;28;20040;-84
2022/09/14 08:13:34;;;;;;;17.35;9.45;;;21.70;99.90;;;;;;5057702;28;20045;-85
2022/09/14 08:16:00;;;;;;;19.88;9.65;;;22.00;99.90;;;;;;5074536;28;20032;-83
2022/09/14 08:18:28;;;;;;;18.00;9.80;;;22.00;99.90;;;;;;5072246;28;20064;-87
2022/09/14 08:20:53;;;;;;;28.00;9.73;;;21.80;99.90;;;;;;5068473;28;20036;-89
2022/09/14 08:23:19;;;;;;;19.50;9.90;;;21.60;99.90;;;;;;5049465;28;20033;-86
2022/09/14 08:25:45;;;;;;;17.65;9.77;;;21.40;99.90;;;;;;5066829;28;20068;-84
2022/09/14 08:28:11;;;;;;;17.42;9.77;;;21.40;99.90;;;;;;5064984;28;20033;-85
2022/09/14 08:30:36;;;;;;;14.40;9.98;;;21.50;99.90;;;;;;5065772;28;20405;-85
2022/09/14 08:33:02;;;;;;;16.65;9.27;;;21.80;99.90;;;;;;5064906;28;20059;-86
2022/09/14 08:35:28;;;;;;;14.20;9.07;;;22.10;99.90;;;;;;5065582;28;20029;-86
2022/09/14 08:37:54;;;;;;;16.63;8.40;;;22.10;99.90;;;;;;5069315;28;20077;-84
2022/09/14 08:40:20;;;;;;;19.23;8.73;;;22.30;99.90;;;;;;5050909;28;20033;-86
2022/09/14 08:42:47;;;;;;;13.55;7.85;;;22.40;99.90;;;;;;5050251;28;20033;-85
2022/09/14 08:45:15;;;;;;;14.35;7.57;;;22.50;99.90;;;;;;5068541;28;20025;-84
2022/09/14 08:47:42;;;;;;;14.93;8.50;;;22.60;99.90;;;;;;5072434;28;20028;-86
2022/09/14 08:50:17;;;;;;;12.55;7.97;;;22.70;99.90;;;;;;5070884;28;20033;-85
2022/09/14 08:52:54;;;;;;;12.73;7.93;;;22.90;99.90;;;;;;5052777;28;20033;-86
2022/09/14 08:55:49;;;;;;;14.20;9.05;;;22.80;99.90;;;;;;5071234;28;20029;-86
2022/09/14 08:58:53;;;;;;;16.75;8.02;;;22.90;99.90;;;;;;5072464;28;20075;-84
2022/09/14 09:01:40;;;;;;;22.95;10.13;;;23.00;99.90;;;;;;5055142;28;20105;-86
2022/09/14 09:04:12;;;;;;;14.35;7.65;;;22.90;99.90;;;;;;5055515;28;20100;-84
2022/09/14 09:06:50;;;;;;;15.73;9.05;;;22.90;99.90;;;;;;5073304;28;20045;-85
2022/09/14 09:09:39;;;;;;;17.45;10.63;;;23.00;99.90;;;;;;5072696;28;20041;-83
2022/09/14 09:12:06;;;;;;;22.27;11.38;;;23.00;99.90;;;;;;5078287;28;20033;-86
2022/09/14 09:14:42;;;;;;;15.13;9.05;;;22.90;99.90;;;;;;5077556;28;20025;-85
2022/09/14 09:17:31;;;;;;;16.95;8.98;;;23.00;99.90;;;;;;5075271;28;20057;-84
2022/09/14 09:20:17;;;;;;;18.10;9.20;;;23.00;99.90;;;;;;5075775;28;20032;-84
2022/09/14 09:23:06;;;;;;;19.67;9.02;;;23.00;99.90;;;;;;5061682;28;20043;-83
2022/09/14 09:25:52;;;;;;;18.60;9.60;;;23.30;99.90;;;;;;5076204;28;20049;-84
2022/09/14 09:28:21;;;;;;;19.40;10.68;;;23.30;99.90;;;;;;5076634;28;20045;-84
2022/09/14 09:30:47;;;;;;;18.02;10.65;;;23.40;99.90;;;;;;5075202;28;20028;-86
2022/09/14 09:33:22;;;;;;;19.05;10.27;;;23.50;99.90;;;;;;5075744;28;20056;-83
2022/09/14 09:36:00;;;;;;;17.85;9.63;;;23.50;99.90;;;;;;5058841;28;20096;-85
2022/09/14 09:38:29;;;;;;;16.27;9.50;;;23.40;99.90;;;;;;5042212;28;20001;-84
2022/09/14 09:41:14;;;;;;;16.10;9.43;;;23.10;99.90;;;;;;5077363;28;20085;-82
2022/09/14 09:44:01;;;;;;;17.80;10.02;;;23.00;99.90;;;;;;5061083;28;20063;-82
2022/09/14 09:46:30;;;;;;;15.65;8.57;;;22.90;99.90;;;;;;5077913;28;20048;-83
2022/09/14 09:48:57;;;;;;;17.38;8.75;;;22.90;99.90;;;;;;5060257;28;20034;-83
2022/09/14 09:51:23;;;;;;;14.88;9.05;;;23.20;99.90;;;;;;5077678;28;20041;-84
2022/09/14 09:53:58;;;;;;;13.43;9.85;;;23.40;99.90;;;;;;5077672;28;20044;-84
2022/09/14 09:56:30;;;;;;;18.13;9.73;;;23.50;99.90;;;;;;5077823;28;20037;-82
2022/09/14 09:58:56;;;;;;;14.55;9.63;;;23.50;99.90;;;;;;5076818;28;20073;-85
2022/09/14 10:01:31;;;;;;;14.93;9.40;;;23.30;99.90;;;;;;5076984;28;20059;-84
2022/09/14 10:04:01;;;;;;;;;;;23.30;99.90;;;;;;5077234;28;20087;-85
2022/09/14 10:06:28;;;;;;;16.27;9.40;;;23.30;99.90;;;;;;5059409;28;19901;-83
2022/09/14 10:08:56;;;;;;;18.33;9.13;;;23.40;99.90;;;;;;5076417;28;20086;-82
2022/09/14 10:11:27;;;;;;;21.02;10.93;;;23.60;99.90;;;;;;5059398;28;20049;-84
2022/09/14 10:13:53;;;;;;;17.02;8.82;;;23.80;99.90;;;;;;5059576;28;20028;-83
2022/09/14 10:16:19;;;;;;;18.48;9.23;;;23.70;99.90;;;;;;5059441;28;20017;-82
2022/09/14 10:18:51;;;;;;;13.63;9.07;;;23.70;99.90;;;;;;5077186;28;20097;-84
2022/09/14 10:21:22;;;;;;;16.15;9.80;;;23.70;99.90;;;;;;5077091;28;20046;-83
2022/09/14 10:24:16;;;;;;;18.27;9.32;;;23.40;99.90;;;;;;5060005;28;20051;-84
2022/09/14 10:26:41;;;;;;;14.85;9.48;;;23.10;99.90;;;;;;5077661;28;20094;-82
2022/09/14 10:29:47;;;;;;;16.67;9.77;;;22.80;99.90;;;;;;5043144;28;20025;-82
2022/09/14 10:32:24;;;;;;;15.73;10.30;;;22.60;99.90;;;;;;4997124;28;20054;-82
2022/09/14 10:34:50;;;;;;;13.55;8.52;;;22.30;99.90;;;;;;4980758;28;20057;-83
2022/09/14 10:37:28;;;;;;;15.02;9.15;;;22.20;99.90;;;;;;5024727;28;20045;-82
2022/09/14 10:40:04;;;;;;;22.98;10.45;;;22.00;99.90;;;;;;5077095;28;20045;-83
2022/09/14 10:42:42;;;;;;;19.45;10.07;;;21.80;99.90;;;;;;5076977;28;20072;-84
2022/09/14 10:45:45;;;;;;;26.63;11.25;;;21.60;99.90;;;;;;5077032;28;20885;-83
2022/09/14 10:48:25;;;;;;;15.75;9.43;;;21.50;99.90;;;;;;5036114;28;20063;-84
2022/09/14 10:51:06;;;;;;;19.48;9.85;;;21.40;99.90;;;;;;5077391;28;20154;-83
2022/09/14 10:53:50;;;;;;;16.35;10.68;;;21.30;99.90;;;;;;5076978;28;20017;-84
2022/09/14 10:56:31;;;;;;;16.30;10.43;;;21.20;99.90;;;;;;5059799;28;20044;-84
2022/09/14 10:59:15;;;;;;;18.23;11.73;;;21.20;99.90;;;;;;5076559;28;20021;-85
2022/09/14 11:02:20;;;;;;;17.40;10.85;;;21.10;99.90;;;;;;5058924;28;20040;-84
2022/09/14 11:05:32;;;;;;;15.80;11.55;;;21.10;99.90;;;;;;5045926;28;20041;-84
2022/09/14 11:08:19;;;;;;;18.63;11.48;;;21.10;99.90;;;;;;4979869;28;20046;-83
2022/09/14 11:11:03;;;;;;;28.30;11.70;;;21.10;99.90;;;;;;5054621;28;20040;-83
2022/09/14 11:14:14;;;;;;;24.63;11.68;;;21.00;99.90;;;;;;5076473;28;20021;-83
2022/09/14 11:17:02;;;;;;;21.88;11.75;;;21.00;99.90;;;;;;5045060;28;20033;-87
2022/09/14 11:19:45;;;;;;;16.10;11.70;;;21.00;99.90;;;;;;5075738;28;20021;-84
2022/09/14 11:22:21;;;;;;;20.73;12.25;;;21.10;99.90;;;;;;5042700;28;20040;-82
2022/09/14 11:25:22;;;;;;;22.25;14.70;;;21.20;99.90;;;;;;5064614;22;20049;-84
2022/09/14 11:27:57;;;;;;;26.40;15.38;;;21.30;99.90;;;;;;5053642;28;20288;-85
2022/09/14 11:30:49;;;;;;;20.40;14.52;;;21.40;99.90;;;;;;5043286;28;20091;-84
2022/09/14 11:33:28;;;;;;;23.45;15.25;;;21.40;99.90;;;;;;5029811;28;20116;-85
2022/09/14 11:36:00;;;;;;;21.30;15.02;;;21.40;99.90;;;;;;5048557;28;20033;-83
2022/09/14 11:38:35;;;;;;;23.23;17.05;;;21.60;99.90;;;;;;5069671;28;20064;-85
2022/09/14 11:41:20;;;;;;;;;;;21.60;99.90;;;;;;5061110;28;20033;-85
2022/09/14 11:43:48;;;;;;;25.40;16.23;;;21.60;99.90;;;;;;5043282;28;19909;-85
2022/09/14 11:46:19;;;;;;;24.70;14.45;;;21.70;99.90;;;;;;5061076;28;20071;-85
2022/09/14 11:48:50;;;;;;;19.70;14.20;;;21.80;99.90;;;;;;5061022;28;20500;-85
2022/09/14 11:51:37;;;;;;;19.63;14.23;;;22.10;99.90;;;;;;5061796;28;20064;-85
2022/09/14 11:54:12;;;;;;;25.88;14.15;;;22.50;99.90;;;;;;5072649;28;20020;-86
2022/09/14 11:56:38;;;;;;;22.25;13.77;;;22.70;99.90;;;;;;5063363;28;20047;-85
2022/09/14 11:59:06;;;;;;;15.00;11.02;;;23.00;99.90;;;;;;5068426;28;20466;-85
2022/09/14 12:01:37;;;;;;;19.60;11.68;;;23.30;99.90;;;;;;5045506;28;20040;-85
2022/09/14 12:04:05;;;;;;;18.10;11.52;;;23.30;99.90;;;;;;5061654;28;20205;-84
2022/09/14 12:06:30;;;;;;;18.80;10.68;;;23.50;99.90;;;;;;5050724;28;20032;-84
2022/09/14 12:09:21;;;;;;;21.60;10.68;;;23.90;99.90;;;;;;5064008;28;20043;-84
2022/09/14 12:11:48;;;;;;;16.40;9.95;;;24.30;99.90;;;;;;5064491;28;20037;-85
2022/09/14 12:14:23;;;;;;;16.38;10.35;;;24.90;99.90;;;;;;5044447;28;20025;-85
2022/09/14 12:17:14;;;;;;;12.65;9.13;;;25.30;99.90;;;;;;5044762;28;20052;-85
2022/09/14 12:19:41;;;;;;;13.98;8.63;;;26.00;99.90;;;;;;5061280;28;20055;-84
2022/09/14 12:22:36;;;;;;;16.13;8.52;;;26.60;99.90;;;;;;5061129;28;20384;-84
2022/09/14 12:25:08;;;;;;;13.25;8.85;;;27.10;99.90;;;;;;5036917;28;20124;-83
2022/09/14 12:27:39;;;;;;;15.27;8.02;;;27.30;99.90;;;;;;5061070;28;20028;-83
2022/09/14 12:30:39;;;;;;;14.98;7.90;;;28.10;99.90;;;;;;5060457;28;20029;-84
2022/09/14 12:33:32;;;;;;;15.43;7.05;;;28.40;99.90;;;;;;5060483;28;20021;-84
2022/09/14 12:36:05;;;;;;;12.70;6.60;;;28.70;99.90;;;;;;5069336;28;20021;-84
2022/09/14 12:38:31;;;;;;;8.88;5.40;;;29.40;99.20;;;;;;5065458;28;20029;-84
2022/09/14 12:41:01;;;;;;;9.75;5.25;;;30.90;97.00;;;;;;5061860;28;20059;-85
2022/09/14 12:43:36;;;;;;;7.55;5.07;;;31.80;94.00;;;;;;5058521;28;20487;-84
2022/09/14 12:46:28;;;;;;;8.40;4.75;;;31.30;93.10;;;;;;5057892;28;20029;-84
2022/09/14 12:49:02;;;;;;;6.22;4.35;;;31.20;92.60;;;;;;5060243;28;20037;-84
2022/09/14 12:54:02;;;;;;;4.55;4.05;;;31.50;91.40;;;;;;5073476;28;20025;-83
2022/09/14 12:56:32;;;;;;;7.10;4.20;;;31.60;91.00;;;;;;5074481;28;20033;-84
2022/09/14 12:59:15;;;;;;;10.68;4.10;;;31.30;91.30;;;;;;5074202;28;20067;-84
2022/09/14 13:02:00;;;;;;;7.00;4.57;;;31.10;91.10;;;;;;5074271;28;20029;-84
2022/09/14 13:04:30;;;;;;;6.05;4.40;;;30.10;91.90;;;;;;5074188;28;21432;-85
2022/09/14 13:06:59;;;;;;;9.35;4.82;;;30.20;92.20;;;;;;5074768;28;20059;-86